• Join FlightAware (Why Join?)
  • Login
  • US Flag 
03:22AM EDT


 

Airport Tracker/Info


-or-


 

Live Flight TrackerFlight Track Log ✈ WIG1043 ✈ 16-Apr-2014 ✈ KBGR - KMHT

Flight Track Log - Related Links

Times and Time Zones

All times are in EDT time to prevent confusion due to time zone crossing. See the WIG1043 flight status page for this flight to view local times or setup timezone preferences in your user account.

Time Position Orientation Groundspeed Altitude Reporting Facility
EDT Latitude Longitude Course Direction KTS MPH feet Rate Location/Type
07:40PM 44.7703 -68.9119 226° Southwest 151 174 3,900  Level Boston Center
07:41PM 44.7275 -68.9789 228° Southwest 185 213 4,000  Climbing Boston Center
07:42PM 44.6842 -69.0342 222° Southwest 203 234 4,000  Level Boston Center
07:43PM 44.6447 -69.0950 228° Southwest 204 235 4,000 -60 Level Boston Center
07:44PM 44.6100 -69.1005 226° Southwest  Level FlightAware Approximate
07:44PM 44.6056 -69.1536 227° Southwest 204 235 3,900  Level Boston Center
07:45PM 44.5778 -69.1474 226° Southwest  Level FlightAware Approximate
07:45PM 44.5661 -69.2117 226° Southwest 204 235 3,900  Level Boston Center
07:46PM 44.5261 -69.2672 225° Southwest 204 235 4,000  Climbing Boston Center
07:47PM 44.4861 -69.3231 225° Southwest 204 235 4,000  Level Boston Center
07:48PM 44.4489 -69.3803 228° Southwest 202 232 4,000  Level Boston Center
07:49PM 44.4122 -69.4378 228° Southwest 201 231 4,000 -60 Level Boston Center
07:50PM 44.3736 -69.4939 226° Southwest 201 231 3,900  Descending Boston Center
07:51PM 44.3353 -69.5472 225° Southwest 199 229 4,000  Climbing Boston Center
07:52PM 44.2958 -69.6000 224° Southwest 199 229 4,000  Level Boston Center
07:53PM 44.2531 -69.6522 221° Southwest 199 229 4,000  Level Boston Center
07:54PM 44.2033 -69.7189 224° Southwest 208 239 4,000  Level Boston Center
07:55PM 44.1667 -69.7781 229° Southwest 206 237 4,000  Level Boston Center
07:56PM 44.1258 -69.8322 224° Southwest 204 235 4,000  Level Boston Center
07:57PM 44.0861 -69.8872 225° Southwest 205 236 4,000  Level Boston Center
07:58PM 44.0428 -69.9453 224° Southwest 202 232 4,000  Level Boston Center
07:59PM 43.9994 -69.9925 218° Southwest 201 231 4,000  Level Boston Center
08:00PM 43.9611 -70.0458 225° Southwest 196 226 4,000 -60 Level Boston Center
08:01PM 43.9217 -70.1011 225° Southwest 189 217 3,900  Descending Boston Center
08:02PM 43.8828 -70.1511 223° Southwest 192 221 4,000  Climbing Boston Center
08:03PM 43.8439 -70.2053 225° Southwest 194 223 4,000  Level Boston Center
08:04PM 43.8047 -70.2603 225° Southwest 195 224 4,000  Level Boston Center
08:05PM 43.7672 -70.3150 227° Southwest 196 226 4,000  Level Boston Center
08:06PM 43.7244 -70.3719 224° Southwest 195 224 4,000  Level Boston Center
08:07PM 43.6861 -70.4208 223° Southwest 190 219 4,000  Level Boston Center
08:08PM 43.6483 -70.4728 225° Southwest 192 221 4,000  Level Boston Center
08:09PM 43.6111 -70.5256 226° Southwest 191 220 4,000  Level Boston Center
08:10PM 43.5708 -70.5806 225° Southwest 189 217 4,000  Level Boston Center
08:11PM 43.5336 -70.6347 227° Southwest 193 222 4,000  Level Boston Center
08:12PM 43.4989 -70.6900 229° Southwest 193 222 4,000  Level Boston Center
08:13PM 43.4586 -70.7444 224° Southwest 200 230 4,000  Level Boston Center
08:15PM 43.4167 -70.8011 224° Southwest 199 229 4,000  Level Boston Center
08:16PM 43.3761 -70.8556 224° Southwest 204 235 4,100  Climbing Boston Center
08:17PM 43.3347 -70.9086 223° Southwest 204 235 4,000 -60 Descending Boston Center
08:18PM 43.2911 -70.9669 224° Southwest 203 234 4,000  Level Boston Center
08:19PM 43.2486 -71.0181 221° Southwest 203 234 4,100  Climbing Boston Center
08:20PM 43.2078 -71.0725 224° Southwest 204 235 4,000 -60 Descending Boston Center
08:21PM 43.1681 -71.1256 224° Southwest 204 235 4,000  Level Boston Center
08:22PM 43.1236 -71.1839 224° Southwest 208 239 4,100  Climbing Boston Center
08:23PM 43.0836 -71.2361 224° Southwest 201 231 4,100  Level Boston Center
08:24PM 43.0419 -71.2883 222° Southwest 202 232 4,100  Level Boston Center
08:25PM 42.9914 -71.3142 200° South 204 235 4,100 -180 Level Boston Center
08:26PM 42.9383 -71.2858 159° South 214 246 3,800 -540 Descending Boston Center
08:27PM 42.8817 -71.2631 164° South 202 232 3,100 -540 Descending Boston Center
08:28PM 42.8403 -71.2914 207° Southwest 180 207 2,700 -420 Descending Boston Center
08:29PM 42.8233 -71.3489 248° West 167 192 2,300 -420 Descending Boston Center
08:30PM 42.8386 -71.3778 306° West 124 143 1,900 -480 Descending Boston Center
08:31PM 42.8619 -71.3914 337° Northwest 94 108 1,400 -360 Descending Boston Center
08:32PM 42.8842 -71.4053 335° Northwest 85 98 1,200 -360 Descending Boston Center
08:33PM 42.9067 -71.4175 338° Northwest 85 98 700 -360 Descending Boston Center
08:34PM 42.9281 -71.4281 340° North 85 98 500 -240 Descending Boston Center
08:36PM 42.9328 -71.4358 95° East  Level Estimated